Temple, GA (30179)

4:52 PM EDT on October 25, 2014 (GMT -0400)
Amy Ridge | Change Station
CLOSE
Current Station
Personal Weather Station
Location: Temple, GA
Elevation: 1188 ft
Nearby Weather Stations

Elev 1188 ft 33.74 °N, 85.05 °W | Updated 12 seconds ago

Clear
Clear
0.0 °F
Feels Like 0.0 °F
N
0.9
Wind Variable Wind from West
Gusts 1.1 mph

Today
High -- | Low -- °F
--% Chance of Precip.
Yesterday
High -- | Low -- °F
Precip. -- in
7:53 AM 6:54 PM
Waxing Crescent, 4% visible
Pressure 30.04 in
Visibility 10.0 miles
Clouds Clear
Dew Point Not available.
Humidity Not available.
Rainfall 0.00 in
Snow Depth Not available.
UV 0.0 out of 12
Pollen 2.50 out of 12
Ozone Good
PM2.5 Moderate
Flu Activity Sporadic
METAR KPUJ 252035Z AUTO 30005KT 10SM CLR 23/10 A3004 RMK AO2

More Conditions Fewer Conditions

Pressure 30.04 in
Visibility 10.0 miles
Clouds Clear
Dew Point Not available.
Humidity Not available.
Rainfall 0.00 in
Snow Depth Not available.
UV 0.0 out of 12
Pollen 2.50 out of 12
Ozone Good
PM2.5 Moderate
Flu Activity Sporadic
METAR KPUJ 252035Z AUTO 30005KT 10SM CLR 23/10 A3004 RMK AO2

More Conditions Fewer Conditions

10-Day Weather Forecast

Almanac

Astronomy

Oct. 25, 2014 Rise Set
Actual Time 7:53 AM EDT 6:54 PM EDT
Civil Twilight 7:27 AM EDT 7:20 PM EDT
Nautical Twilight 6:58 AM EDT 7:49 PM EDT
Astronomical Twilight 6:29 AM EDT 8:18 PM EDT
Moon 9:27 AM EDT 8:21 PM EDT
Length of Visible Light 11h 52m
Length of Day
11h 01m
Tomorrow will be 1m 55s shorter.
Waxing Crescent, 4% of the Moon is Illuminated
Today
Waxing Crescent
Oct 30
First Quarter
Nov 6
Full
Nov 14
Last Quarter
Nov 22
New

Today's Extremes

State Highs State Lows

Community

WunderPhotos

Upload Photos

1,764,989 photos uploaded!

Nearby

Air Quality

  Air Quality AQ Index Pollutant
Yesterday Good
PM10
Yesterday Good
OZONE
Current Moderate
PM2.5
Current Good
OZONE
Saturday Moderate
PM2.5
Saturday Good
OZONE
Sunday Moderate
PM2.5
Sunday Good
OZONE

Snow Depth

Station Depth Elevation
No new snow has been reported.

Earthquake Activity

City Distance Mag. Time & Date
No recent earthquake activity has been reported nearby.
Minimum magnitude displayed is 2.5.

Coastal Water Temperatures

Place Temperature
No Stations Reporting

Nearby Weather Stations